createdAt,value
2019-04-13T00:01:47.285Z,21.07
2019-04-13T00:04:28.707Z,22.30
2019-04-13T00:06:48.352Z,21.57
2019-04-13T00:09:18.231Z,21.67
2019-04-13T00:11:51.463Z,20.93
2019-04-13T00:14:21.071Z,22.10
2019-04-13T00:16:49.497Z,22.47
2019-04-13T00:19:17.918Z,22.70
2019-04-13T00:21:46.327Z,22.00
2019-04-13T00:24:14.758Z,21.83
2019-04-13T00:26:43.248Z,24.23
2019-04-13T00:29:11.712Z,23.97
2019-04-13T00:31:40.119Z,22.07
2019-04-13T00:34:08.561Z,22.47
2019-04-13T00:36:36.978Z,21.97
2019-04-13T00:39:06.928Z,23.10
2019-04-13T00:41:35.735Z,22.53
2019-04-13T00:44:04.391Z,22.20
2019-04-13T00:46:32.813Z,22.23
2019-04-13T00:49:01.265Z,22.67
2019-04-13T00:51:29.671Z,21.93
2019-04-13T00:53:58.113Z,23.57
2019-04-13T00:56:26.523Z,22.90
2019-04-13T00:58:54.952Z,22.70
2019-04-13T01:01:23.355Z,22.17
2019-04-13T01:03:51.807Z,22.60
2019-04-13T01:06:20.204Z,22.23
2019-04-13T01:08:48.624Z,22.17
2019-04-13T01:11:17.049Z,22.13
2019-04-13T01:13:45.456Z,21.27
2019-04-13T01:16:13.863Z,21.80
2019-04-13T01:18:42.284Z,24.13
2019-04-13T01:21:10.687Z,22.23
2019-04-13T01:23:39.144Z,22.57
2019-04-13T01:26:07.560Z,21.47
2019-04-13T01:28:36.008Z,21.67
2019-04-13T01:31:04.409Z,22.23
2019-04-13T01:33:32.831Z,21.03
2019-04-13T01:36:01.242Z,21.03
2019-04-13T01:38:29.660Z,22.20
2019-04-13T01:40:58.078Z,23.03
2019-04-13T01:43:26.495Z,20.90
2019-04-13T01:45:54.924Z,22.30
2019-04-13T01:48:23.355Z,21.13
2019-04-13T01:50:51.811Z,21.00
2019-04-13T01:53:20.219Z,21.13
2019-04-13T01:55:48.637Z,21.33
2019-04-13T01:58:17.059Z,20.57
2019-04-13T02:01:04.960Z,21.37
2019-04-13T02:03:34.574Z,20.80
2019-04-13T02:06:04.687Z,20.43
2019-04-13T02:08:40.729Z,21.20
2019-04-13T02:11:19.611Z,21.07
2019-04-13T02:13:48.010Z,20.30
2019-04-13T02:16:16.460Z,20.53
2019-04-13T02:18:44.879Z,20.50
2019-04-13T02:21:13.311Z,20.60
2019-04-13T02:23:41.721Z,21.03
2019-04-13T02:26:10.141Z,20.27
2019-04-13T02:28:38.549Z,20.20
2019-04-13T02:31:06.973Z,20.47
2019-04-13T02:33:35.385Z,20.13
2019-04-13T02:36:03.810Z,20.90
2019-04-13T02:38:32.211Z,20.73
2019-04-13T02:41:00.653Z,20.63
2019-04-13T02:43:29.056Z,20.90
2019-04-13T02:45:57.481Z,21.53
2019-04-13T02:48:25.887Z,20.43
2019-04-13T02:50:54.316Z,21.63
2019-04-13T02:53:22.715Z,20.87
2019-04-13T02:55:51.144Z,21.57
2019-04-13T02:58:19.548Z,20.50
2019-04-13T03:00:47.982Z,21.10
2019-04-13T03:03:16.389Z,21.70
2019-04-13T03:05:47.155Z,21.60
2019-04-13T03:08:14.949Z,21.17
2019-04-13T03:10:43.390Z,20.40
2019-04-13T03:13:11.878Z,21.07
2019-04-13T03:15:41.924Z,21.07
2019-04-13T03:18:12.009Z,22.40
2019-04-13T03:20:40.398Z,20.87
2019-04-13T03:23:08.828Z,20.60
2019-04-13T03:25:37.290Z,19.80
2019-04-13T03:28:05.755Z,21.17
2019-04-13T03:30:35.831Z,20.43
2019-04-13T03:33:04.427Z,22.00
2019-04-13T03:35:32.846Z,24.23
2019-04-13T03:38:01.340Z,22.53
2019-04-13T03:40:29.772Z,22.20
2019-04-13T03:42:58.213Z,23.33
2019-04-13T03:45:26.627Z,22.33
2019-04-13T03:47:55.121Z,24.07
2019-04-13T03:50:23.552Z,21.77
2019-04-13T03:52:51.980Z,23.00
2019-04-13T03:55:20.406Z,22.90
2019-04-13T03:57:48.827Z,21.93
2019-04-13T04:00:17.409Z,22.67
2019-04-13T04:02:45.835Z,22.47
2019-04-13T04:05:14.272Z,23.33
2019-04-13T04:07:42.692Z,22.97
2019-04-13T04:10:11.548Z,22.23
2019-04-13T04:12:40.029Z,21.97
2019-04-13T04:15:08.755Z,21.53
2019-04-13T04:17:37.189Z,22.60
2019-04-13T04:20:06.171Z,21.73
2019-04-13T04:22:34.579Z,22.77
2019-04-13T04:25:03.011Z,23.13
2019-04-13T04:27:31.420Z,22.30
2019-04-13T04:29:59.840Z,23.57
2019-04-13T04:32:28.275Z,23.73
2019-04-13T04:34:56.693Z,21.87
2019-04-13T04:37:25.125Z,23.33
2019-04-13T04:39:53.568Z,22.67
2019-04-13T04:42:21.995Z,24.43
2019-04-13T04:44:50.458Z,22.67
2019-04-13T04:47:18.881Z,23.37
2019-04-13T04:49:47.340Z,23.63
2019-04-13T04:52:15.732Z,22.57
2019-04-13T04:54:44.155Z,27.70
2019-04-13T04:57:12.559Z,24.70
2019-04-13T04:59:41.006Z,26.27
2019-04-13T05:02:09.451Z,22.57
2019-04-13T05:04:37.880Z,25.77
2019-04-13T05:07:06.311Z,24.27
2019-04-13T05:09:34.727Z,23.70
2019-04-13T05:12:03.155Z,23.37
2019-04-13T05:14:31.584Z,24.17
2019-04-13T05:17:00.010Z,25.27
2019-04-13T05:19:28.431Z,23.90
2019-04-13T05:21:56.876Z,23.53
2019-04-13T05:24:25.319Z,24.87
2019-04-13T05:26:53.735Z,23.37
2019-04-13T05:29:22.176Z,22.10
2019-04-13T05:31:50.596Z,25.47
2019-04-13T05:34:19.029Z,24.37
2019-04-13T05:36:48.128Z,27.43
2019-04-13T05:39:16.757Z,24.27
2019-04-13T05:41:45.167Z,26.23
2019-04-13T05:44:13.605Z,23.33
2019-04-13T05:46:42.009Z,24.80
2019-04-13T05:49:10.440Z,25.60
2019-04-13T05:51:38.882Z,25.03
2019-04-13T05:54:07.287Z,25.00
2019-04-13T05:56:35.754Z,25.10
2019-04-13T05:59:04.220Z,24.03
2019-04-13T06:01:32.653Z,24.13
2019-04-13T06:04:01.062Z,23.43
2019-04-13T06:06:29.488Z,26.70
2019-04-13T06:08:57.932Z,24.00
2019-04-13T06:11:26.355Z,26.27
2019-04-13T06:13:57.868Z,26.47
2019-04-13T06:16:24.907Z,24.63
2019-04-13T06:18:53.317Z,25.40
2019-04-13T06:21:21.760Z,23.33
2019-04-13T06:23:50.734Z,24.27
2019-04-13T06:26:19.272Z,24.93
2019-04-13T06:28:48.566Z,24.33
2019-04-13T06:31:27.695Z,23.40
2019-04-13T06:33:57.817Z,25.17
2019-04-13T06:36:26.505Z,27.85
2019-04-13T06:38:54.935Z,24.27
2019-04-13T06:41:23.388Z,24.40
2019-04-13T06:43:51.824Z,23.60
2019-04-13T06:46:20.309Z,26.50
2019-04-13T06:48:48.746Z,27.53
2019-04-13T06:51:17.171Z,25.67
2019-04-13T06:53:45.587Z,24.37
2019-04-13T06:56:14.003Z,24.73
2019-04-13T06:58:42.432Z,24.13
2019-04-13T07:01:10.845Z,24.90
2019-04-13T07:03:39.291Z,25.50
2019-04-13T07:06:07.691Z,26.30
2019-04-13T07:08:40.452Z,26.43
2019-04-13T07:11:28.875Z,29.27
2019-04-13T07:14:01.658Z,24.23
2019-04-13T07:16:34.324Z,25.63
2019-04-13T07:19:06.137Z,24.00
2019-04-13T07:21:32.953Z,23.70
2019-04-13T07:24:01.409Z,29.83
2019-04-13T07:26:29.865Z,26.70
2019-04-13T07:28:58.267Z,25.63
2019-04-13T07:31:31.202Z,26.40
2019-04-13T07:33:56.820Z,24.53
2019-04-13T07:36:25.240Z,25.27
2019-04-13T07:38:53.726Z,27.70
2019-04-13T07:41:22.136Z,28.53
2019-04-13T07:43:50.563Z,26.57
2019-04-13T07:46:29.543Z,29.33
2019-04-13T07:49:03.856Z,26.20
2019-04-13T07:51:42.835Z,27.17
2019-04-13T07:54:11.264Z,27.57
2019-04-13T07:56:39.664Z,25.90
2019-04-13T07:59:08.086Z,28.47
2019-04-13T08:01:36.899Z,26.93
2019-04-13T08:04:05.408Z,27.20
2019-04-13T08:06:36.611Z,27.90
2019-04-13T08:09:05.745Z,28.50
2019-04-13T08:11:34.170Z,26.57
2019-04-13T08:14:04.223Z,27.93
2019-04-13T08:16:32.650Z,28.70
2019-04-13T08:19:02.703Z,26.57
2019-04-13T08:21:33.423Z,29.43
2019-04-13T08:24:02.455Z,28.73
2019-04-13T08:26:30.930Z,27.57
2019-04-13T08:28:59.431Z,30.63
2019-04-13T08:31:27.924Z,29.03
2019-04-13T08:33:56.691Z,31.73
2019-04-13T08:36:25.124Z,32.13
2019-04-13T08:38:59.069Z,29.90
2019-04-13T08:41:27.324Z,27.13
2019-04-13T08:43:55.724Z,29.80
2019-04-13T08:46:24.195Z,28.20
2019-04-13T08:48:52.609Z,28.07
2019-04-13T08:51:21.119Z,32.20
2019-04-13T08:53:49.512Z,29.40
2019-04-13T08:56:17.943Z,30.85
2019-04-13T08:58:47.182Z,28.90
2019-04-13T09:01:16.009Z,33.63
2019-04-13T09:03:44.555Z,29.90
2019-04-13T09:06:16.506Z,28.73
2019-04-13T09:08:43.108Z,28.70
2019-04-13T09:11:14.277Z,31.75
2019-04-13T09:13:42.064Z,29.87
2019-04-13T09:16:12.800Z,28.83
2019-04-13T09:18:44.133Z,30.30
2019-04-13T09:21:23.220Z,32.20
2019-04-13T09:23:50.569Z,28.03
2019-04-13T09:26:18.989Z,30.13
2019-04-13T09:28:47.422Z,28.47
2019-04-13T09:31:17.001Z,31.30
2019-04-13T09:33:45.452Z,31.17
2019-04-13T09:36:13.920Z,27.97
2019-04-13T09:38:46.287Z,27.53
2019-04-13T09:41:12.499Z,28.83
2019-04-13T09:43:42.596Z,30.97
2019-04-13T09:46:10.987Z,29.23
2019-04-13T09:48:42.168Z,27.43
2019-04-13T09:51:10.577Z,27.20
2019-04-13T09:53:39.011Z,27.27
2019-04-13T09:56:11.271Z,29.13
2019-04-13T09:58:41.961Z,26.27
2019-04-13T10:01:16.220Z,26.93
2019-04-13T10:03:41.672Z,24.17
2019-04-13T10:06:10.192Z,26.50
2019-04-13T10:08:38.675Z,28.30
2019-04-13T10:11:07.588Z,24.47
2019-04-13T10:13:54.024Z,25.47
2019-04-13T10:16:27.011Z,24.60
2019-04-13T10:18:58.044Z,25.47
2019-04-13T10:21:27.195Z,24.67
2019-04-13T10:23:55.631Z,23.43
2019-04-13T10:26:24.035Z,23.97
2019-04-13T10:28:52.459Z,25.60
2019-04-13T10:31:21.071Z,25.13
2019-04-13T10:33:49.564Z,23.53
2019-04-13T10:36:17.994Z,24.30
2019-04-13T10:38:46.419Z,24.97
2019-04-13T10:41:14.841Z,23.40
2019-04-13T10:43:43.256Z,24.50
2019-04-13T10:46:25.512Z,23.97
2019-04-13T10:49:11.956Z,24.10
2019-04-13T10:51:47.127Z,26.07
2019-04-13T10:54:15.193Z,23.77
2019-04-13T10:56:45.330Z,22.40
2019-04-13T10:59:13.771Z,23.17
2019-04-13T11:01:42.233Z,22.77
2019-04-13T11:04:10.684Z,24.43
2019-04-13T11:06:39.089Z,24.23
2019-04-13T11:09:20.759Z,24.73
2019-04-13T11:11:40.814Z,23.93
2019-04-13T11:14:09.280Z,25.10
2019-04-13T11:16:37.685Z,24.27
2019-04-13T11:19:07.829Z,23.87
2019-04-13T11:21:36.327Z,24.40
2019-04-13T11:24:04.997Z,21.40
2019-04-13T11:26:33.408Z,23.70
2019-04-13T11:29:01.831Z,20.87
2019-04-13T11:31:30.219Z,22.87
2019-04-13T11:33:58.721Z,21.67
2019-04-13T11:36:27.313Z,21.83
2019-04-13T11:38:55.948Z,20.83
2019-04-13T11:41:38.351Z,22.50
2019-04-13T11:44:17.411Z,20.10
2019-04-13T11:47:03.601Z,19.43
2019-04-13T11:49:33.153Z,16.60
2019-04-13T11:52:01.553Z,17.47
2019-04-13T11:54:29.978Z,18.50
2019-04-13T11:56:58.390Z,17.33
2019-04-13T11:59:26.816Z,19.27
2019-04-13T12:02:05.925Z,18.67
2019-04-13T12:04:52.262Z,19.47
2019-04-13T12:07:22.311Z,19.10
2019-04-13T12:09:52.534Z,18.53
2019-04-13T12:12:28.313Z,17.90
2019-04-13T12:14:58.473Z,18.70
2019-04-13T12:17:34.369Z,18.77
2019-04-13T12:20:04.494Z,20.37
2019-04-13T12:22:37.136Z,18.20
2019-04-13T12:25:06.127Z,18.60
2019-04-13T12:27:34.585Z,18.93
2019-04-13T12:30:10.393Z,21.13
2019-04-13T12:32:39.401Z,19.03
2019-04-13T12:35:07.992Z,18.60
2019-04-13T12:37:36.940Z,18.80
2019-04-13T12:40:08.414Z,18.33
2019-04-13T12:42:38.457Z,19.27
2019-04-13T12:45:07.391Z,18.57
2019-04-13T12:47:35.810Z,18.37
2019-04-13T12:50:05.534Z,18.37
2019-04-13T12:52:33.939Z,19.33
2019-04-13T12:55:05.476Z,19.33
2019-04-13T12:57:32.569Z,19.53
2019-04-13T13:00:01.618Z,20.13
2019-04-13T13:02:34.628Z,19.93
2019-04-13T13:05:08.456Z,22.03
2019-04-13T13:07:37.899Z,20.27
2019-04-13T13:10:15.219Z,20.73
2019-04-13T13:12:38.872Z,19.17
2019-04-13T13:15:09.275Z,20.87
2019-04-13T13:17:37.715Z,20.50
2019-04-13T13:20:08.462Z,19.57
2019-04-13T13:22:36.888Z,19.23
2019-04-13T13:25:06.085Z,19.13
2019-04-13T13:27:34.541Z,18.17
2019-04-13T13:30:03.021Z,18.70
2019-04-13T13:32:31.439Z,19.47
2019-04-13T13:35:00.805Z,19.50
2019-04-13T13:37:31.671Z,18.60
2019-04-13T13:40:00.225Z,19.37
2019-04-13T13:42:28.735Z,19.43
2019-04-13T13:44:57.147Z,18.97
2019-04-13T13:47:27.376Z,19.47
2019-04-13T13:49:55.769Z,20.07
2019-04-13T13:52:24.212Z,19.17
2019-04-13T13:54:52.628Z,18.40
2019-04-13T13:57:21.039Z,18.67
2019-04-13T13:59:49.457Z,18.67
2019-04-13T14:02:21.930Z,18.90
2019-04-13T14:04:50.341Z,18.77
2019-04-13T14:07:18.768Z,19.20
2019-04-13T14:09:48.861Z,18.13
2019-04-13T14:12:17.285Z,17.87
2019-04-13T14:14:45.691Z,18.30
2019-04-13T14:17:14.127Z,19.37
2019-04-13T14:19:42.539Z,20.63
2019-04-13T14:22:11.637Z,16.20
2019-04-13T14:24:40.124Z,17.50
2019-04-13T14:27:08.542Z,15.83
2019-04-13T14:29:37.434Z,15.33
2019-04-13T14:32:06.053Z,16.13
2019-04-13T14:34:34.459Z,24.97
2019-04-13T14:37:02.975Z,16.20
2019-04-13T14:39:34.479Z,15.27
2019-04-13T14:42:01.521Z,15.70
2019-04-13T14:44:30.031Z,15.83
2019-04-13T14:47:00.626Z,16.67
2019-04-13T14:49:28.894Z,20.73
2019-04-13T14:51:57.518Z,21.17
2019-04-13T14:54:25.949Z,16.67
2019-04-13T14:56:54.366Z,23.80
2019-04-13T14:59:22.770Z,19.07
2019-04-13T15:01:51.184Z,19.97
2019-04-13T15:04:19.650Z,16.30
2019-04-13T15:06:48.091Z,16.27
2019-04-13T15:09:17.454Z,17.73
2019-04-13T15:11:46.500Z,18.30
2019-04-13T15:14:15.146Z,17.20
2019-04-13T15:16:46.472Z,16.67
2019-04-13T15:19:28.441Z,17.23
2019-04-13T15:21:46.059Z,17.17
2019-04-13T15:24:17.160Z,17.20
2019-04-13T15:26:46.081Z,17.20
2019-04-13T15:29:18.075Z,16.73
2019-04-13T15:31:45.204Z,17.87
2019-04-13T15:34:13.979Z,17.37
2019-04-13T15:36:42.391Z,19.90
2019-04-13T15:39:12.478Z,17.07
2019-04-13T15:41:54.119Z,16.93
2019-04-13T15:44:12.455Z,17.73
2019-04-13T15:46:41.573Z,17.13
2019-04-13T15:49:11.147Z,22.37
2019-04-13T15:51:42.034Z,19.17
2019-04-13T15:54:10.142Z,20.50
2019-04-13T15:56:41.477Z,15.83
2019-04-13T15:59:09.972Z,16.87
2019-04-13T16:01:38.829Z,17.60
2019-04-13T16:04:07.590Z,20.37
2019-04-13T16:06:36.052Z,22.40
2019-04-13T16:09:14.208Z,17.10
2019-04-13T16:11:52.647Z,18.80
2019-04-13T16:14:15.774Z,17.67
2019-04-13T16:16:45.666Z,17.47
2019-04-13T16:19:15.667Z,19.87
2019-04-13T16:21:45.373Z,19.17
2019-04-13T16:24:13.971Z,20.47
2019-04-13T16:26:42.375Z,17.63
2019-04-13T16:29:25.155Z,19.77
2019-04-13T16:32:05.705Z,16.90
2019-04-13T16:34:36.579Z,16.93
2019-04-13T16:37:16.945Z,16.67
2019-04-13T16:39:45.688Z,16.67
2019-04-13T16:42:19.933Z,16.90
2019-04-13T16:44:48.157Z,18.37
2019-04-13T16:47:35.334Z,15.57
2019-04-13T16:50:23.992Z,17.10
2019-04-13T16:53:03.845Z,16.53
2019-04-13T16:55:37.485Z,17.33
2019-04-13T16:58:23.835Z,16.70
2019-04-13T17:01:00.270Z,14.17
2019-04-13T17:03:43.665Z,15.33
2019-04-13T17:06:12.833Z,15.70
2019-04-13T17:08:41.269Z,16.50
2019-04-13T17:11:11.967Z,17.30
2019-04-13T17:13:41.232Z,18.50
2019-04-13T17:16:16.991Z,17.50
2019-04-13T17:18:56.797Z,17.50
2019-04-13T17:21:27.162Z,17.57
2019-04-13T17:24:07.310Z,17.77
2019-04-13T17:26:37.921Z,18.50
2019-04-13T17:29:13.881Z,18.03
2019-04-13T17:31:49.680Z,17.97
2019-04-13T17:34:29.893Z,18.40
2019-04-13T17:37:00.465Z,17.97
2019-04-13T17:39:29.708Z,19.70
2019-04-13T17:42:26.598Z,18.83
2019-04-13T17:45:02.842Z,18.63
2019-04-13T17:47:49.551Z,19.33
2019-04-13T17:50:32.945Z,18.77
2019-04-13T17:53:24.457Z,19.53
2019-04-13T17:56:01.200Z,18.60
2019-04-13T17:58:44.061Z,18.63
2019-04-13T18:01:21.058Z,19.50
2019-04-13T18:04:05.023Z,20.23
2019-04-13T18:06:51.002Z,22.50
2019-04-13T18:09:21.288Z,23.07
2019-04-13T18:12:01.484Z,20.67
2019-04-13T18:14:31.719Z,19.23
2019-04-13T18:17:02.962Z,19.50
2019-04-13T18:19:31.533Z,22.23
2019-04-13T18:22:00.079Z,23.47
2019-04-13T18:24:28.655Z,25.37
2019-04-13T18:26:57.074Z,30.87
2019-04-13T18:29:26.026Z,34.27
2019-04-13T18:31:54.642Z,35.83
2019-04-13T18:34:25.499Z,21.83
2019-04-13T18:36:53.235Z,20.13
2019-04-13T18:39:21.654Z,19.80
2019-04-13T18:41:50.595Z,20.43
2019-04-13T18:44:19.179Z,22.10
2019-04-13T18:46:47.605Z,21.63
2019-04-13T18:49:16.020Z,19.07
2019-04-13T18:51:44.461Z,15.90
2019-04-13T18:54:13.718Z,14.67
2019-04-13T18:56:42.276Z,15.43
2019-04-13T18:59:10.883Z,13.03
2019-04-13T19:01:39.590Z,14.27
2019-04-13T19:04:07.993Z,12.33
2019-04-13T19:06:36.426Z,12.07
2019-04-13T19:09:09.203Z,11.83
2019-04-13T19:11:37.616Z,11.30
2019-04-13T19:14:06.031Z,13.33
2019-04-13T19:16:34.452Z,12.07
2019-04-13T19:19:02.908Z,12.37
2019-04-13T19:21:31.335Z,10.30
2019-04-13T19:24:00.476Z,13.80
2019-04-13T19:26:29.111Z,13.37
2019-04-13T19:28:57.571Z,11.13
2019-04-13T19:31:25.995Z,11.73
2019-04-13T19:33:54.411Z,13.20
2019-04-13T19:36:22.916Z,19.07
2019-04-13T19:38:51.405Z,11.07
2019-04-13T19:41:19.851Z,11.30
2019-04-13T19:43:48.252Z,10.93
2019-04-13T19:46:16.667Z,10.63
2019-04-13T19:48:45.078Z,11.60
2019-04-13T19:51:13.525Z,12.10
2019-04-13T19:53:43.609Z,12.50
2019-04-13T19:56:13.639Z,12.47
2019-04-13T19:58:42.068Z,15.50
2019-04-13T20:01:12.155Z,11.03
2019-04-13T20:03:40.647Z,12.30
2019-04-13T20:06:18.823Z,12.93
2019-04-13T20:08:39.249Z,13.80
2019-04-13T20:11:07.692Z,13.23
2019-04-13T20:13:45.494Z,14.23
2019-04-13T20:16:06.277Z,16.57
2019-04-13T20:18:34.910Z,13.60
2019-04-13T20:21:03.841Z,16.10
2019-04-13T20:23:32.276Z,12.87
2019-04-13T20:26:01.168Z,13.83
2019-04-13T20:28:30.992Z,14.30
2019-04-13T20:30:59.822Z,14.23
2019-04-13T20:33:29.319Z,16.50
2019-04-13T20:36:05.222Z,15.13
2019-04-13T20:38:28.226Z,15.23
2019-04-13T20:41:17.264Z,14.33
2019-04-13T20:43:55.327Z,16.80
2019-04-13T20:46:17.301Z,16.77
2019-04-13T20:48:46.837Z,16.60
2019-04-13T20:51:15.577Z,16.60
2019-04-13T20:53:44.071Z,18.73
2019-04-13T20:56:16.431Z,18.13
2019-04-13T20:58:46.391Z,17.90
2019-04-13T21:01:14.985Z,18.47
2019-04-13T21:03:44.682Z,20.70
2019-04-13T21:06:13.370Z,21.03
2019-04-13T21:09:01.337Z,19.30
2019-04-13T21:11:29.739Z,18.97
2019-04-13T21:14:08.619Z,17.70
2019-04-13T21:16:28.611Z,16.10
2019-04-13T21:18:58.359Z,15.13
2019-04-13T21:21:28.004Z,14.50
2019-04-13T21:23:56.617Z,14.60
2019-04-13T21:26:25.897Z,13.47
2019-04-13T21:28:56.067Z,13.73
2019-04-13T21:31:24.605Z,13.63
2019-04-13T21:33:54.035Z,15.53
2019-04-13T21:36:23.794Z,14.70
2019-04-13T21:38:52.584Z,13.57
2019-04-13T21:41:21.773Z,14.53
2019-04-13T21:43:50.339Z,12.27
2019-04-13T21:46:19.550Z,12.97
2019-04-13T21:48:48.145Z,12.37
2019-04-13T21:51:24.757Z,12.23
2019-04-13T21:54:03.913Z,13.23
2019-04-13T21:56:32.528Z,12.10
2019-04-13T21:59:01.848Z,13.90
2019-04-13T22:01:38.903Z,12.10
2019-04-13T22:04:08.691Z,13.33
2019-04-13T22:06:38.632Z,14.47
2019-04-13T22:09:10.873Z,11.20
2019-04-13T22:11:40.858Z,11.47
2019-04-13T22:14:10.227Z,12.67
2019-04-13T22:16:39.636Z,10.97
2019-04-13T22:19:09.215Z,12.13
2019-04-13T22:21:37.928Z,13.23
2019-04-13T22:24:07.106Z,12.37
2019-04-13T22:26:36.814Z,12.13
2019-04-13T22:29:09.676Z,13.70
2019-04-13T22:31:56.994Z,13.40
2019-04-13T22:34:40.361Z,12.30
2019-04-13T22:37:10.306Z,10.50
2019-04-13T22:39:40.023Z,12.50
2019-04-13T22:42:09.889Z,12.30
2019-04-13T22:44:47.904Z,12.80
2019-04-13T22:47:08.651Z,15.90
2019-04-13T22:49:41.452Z,15.53
2019-04-13T22:52:21.515Z,12.33
2019-04-13T22:55:07.952Z,15.27
2019-04-13T22:57:39.119Z,13.53
2019-04-13T23:00:23.823Z,16.53
2019-04-13T23:02:54.137Z,15.13
2019-04-13T23:05:24.199Z,19.50
2019-04-13T23:07:52.969Z,15.80
2019-04-13T23:10:22.383Z,14.97
2019-04-13T23:12:51.014Z,15.23
2019-04-13T23:15:27.131Z,15.43
2019-04-13T23:17:50.794Z,20.13
2019-04-13T23:20:19.430Z,15.50
2019-04-13T23:22:48.019Z,15.77
2019-04-13T23:25:16.434Z,17.50
2019-04-13T23:27:45.925Z,18.60
2019-04-13T23:30:16.035Z,20.97
2019-04-13T23:32:44.597Z,21.93
2019-04-13T23:35:13.345Z,25.37
2019-04-13T23:37:43.069Z,23.70
2019-04-13T23:40:13.614Z,23.87
2019-04-13T23:42:42.222Z,24.63
2019-04-13T23:45:19.390Z,22.57
2019-04-13T23:47:42.855Z,23.70
2019-04-13T23:50:13.189Z,24.40
2019-04-13T23:52:41.741Z,25.47
2019-04-13T23:55:10.198Z,25.23
2019-04-13T23:57:57.471Z,25.70
